sensor_id;sensor_type;location;lat;lon;timestamp;pressure;altitude;pressure_sealevel;temperature;humidity
70589;BME280;58152;49.202;18.744;2023-02-13T00:00:21;99355.69;;;2.89;63.73
70589;BME280;58152;49.202;18.744;2023-02-13T00:02:47;99358.28;;;2.89;64.04
70589;BME280;58152;49.202;18.744;2023-02-13T00:05:12;99347.00;;;2.86;64.02
70589;BME280;58152;49.202;18.744;2023-02-13T00:07:38;99345.09;;;2.77;64.26
70589;BME280;58152;49.202;18.744;2023-02-13T00:10:03;99357.28;;;2.81;64.24
70589;BME280;58152;49.202;18.744;2023-02-13T00:12:29;99356.41;;;2.80;64.37
70589;BME280;58152;49.202;18.744;2023-02-13T00:14:55;99355.47;;;2.77;64.57
70589;BME280;58152;49.202;18.744;2023-02-13T00:17:20;99361.50;;;2.76;64.31
70589;BME280;58152;49.202;18.744;2023-02-13T00:19:45;99355.41;;;2.74;65.04
70589;BME280;58152;49.202;18.744;2023-02-13T00:22:11;99351.09;;;2.73;64.65
70589;BME280;58152;49.202;18.744;2023-02-13T00:24:36;99345.03;;;2.72;64.54
70589;BME280;58152;49.202;18.744;2023-02-13T00:27:02;99352.81;;;2.72;64.64
70589;BME280;58152;49.202;18.744;2023-02-13T00:29:27;99348.44;;;2.70;64.78
70589;BME280;58152;49.202;18.744;2023-02-13T00:31:53;99359.56;;;2.64;64.78
70589;BME280;58152;49.202;18.744;2023-02-13T00:34:18;99358.78;;;2.68;64.81
70589;BME280;58152;49.202;18.744;2023-02-13T00:36:43;99357.84;;;2.65;64.90
70589;BME280;58152;49.202;18.744;2023-02-13T00:39:11;99357.88;;;2.66;64.86
70589;BME280;58152;49.202;18.744;2023-02-13T00:41:37;99359.63;;;2.67;64.72
70589;BME280;58152;49.202;18.744;2023-02-13T00:44:02;99364.81;;;2.67;64.88
70589;BME280;58152;49.202;18.744;2023-02-13T00:46:28;99353.53;;;2.65;64.89
70589;BME280;58152;49.202;18.744;2023-02-13T00:48:53;99350.13;;;2.66;65.03
70589;BME280;58152;49.202;18.744;2023-02-13T00:51:18;99345.75;;;2.64;64.92
70589;BME280;58152;49.202;18.744;2023-02-13T00:53:44;99345.81;;;2.68;65.21
70589;BME280;58152;49.202;18.744;2023-02-13T00:56:09;99337.06;;;2.62;65.06
70589;BME280;58152;49.202;18.744;2023-02-13T00:58:35;99348.31;;;2.64;65.21
70589;BME280;58152;49.202;18.744;2023-02-13T01:01:00;99337.91;;;2.61;65.17
70589;BME280;58152;49.202;18.744;2023-02-13T01:03:26;99338.72;;;2.58;65.56
70589;BME280;58152;49.202;18.744;2023-02-13T01:05:51;99340.41;;;2.56;65.67
70589;BME280;58152;49.202;18.744;2023-02-13T01:08:19;99336.94;;;2.54;65.50
70589;BME280;58152;49.202;18.744;2023-02-13T01:10:46;99346.41;;;2.53;65.63
70589;BME280;58152;49.202;18.744;2023-02-13T01:13:13;99344.69;;;2.54;65.69
70589;BME280;58152;49.202;18.744;2023-02-13T01:15:39;99334.22;;;2.48;65.88
70589;BME280;58152;49.202;18.744;2023-02-13T01:18:07;99339.44;;;2.49;65.80
70589;BME280;58152;49.202;18.744;2023-02-13T01:20:32;99334.25;;;2.49;65.77
70589;BME280;58152;49.202;18.744;2023-02-13T01:22:58;99334.19;;;2.46;65.51
70589;BME280;58152;49.202;18.744;2023-02-13T01:25:24;99335.06;;;2.47;65.95
70589;BME280;58152;49.202;18.744;2023-02-13T01:27:50;99329.84;;;2.45;65.95
70589;BME280;58152;49.202;18.744;2023-02-13T01:30:17;99322.09;;;2.45;65.76
70589;BME280;58152;49.202;18.744;2023-02-13T01:32:44;99315.03;;;2.38;65.85
70589;BME280;58152;49.202;18.744;2023-02-13T01:35:11;99319.41;;;2.41;66.18
70589;BME280;58152;49.202;18.744;2023-02-13T01:37:37;99315.03;;;2.38;65.83
70589;BME280;58152;49.202;18.744;2023-02-13T01:40:05;99318.44;;;2.36;65.87
70589;BME280;58152;49.202;18.744;2023-02-13T01:42:32;99301.94;;;2.31;65.57
70589;BME280;58152;49.202;18.744;2023-02-13T01:45:00;99305.41;;;2.29;66.13
70589;BME280;58152;49.202;18.744;2023-02-13T01:47:41;99294.88;;;2.22;66.25
70589;BME280;58152;49.202;18.744;2023-02-13T01:50:36;99300.16;;;2.26;66.64
70589;BME280;58152;49.202;18.744;2023-02-13T01:53:07;99297.53;;;2.25;65.96
70589;BME280;58152;49.202;18.744;2023-02-13T01:55:38;99293.16;;;2.21;66.24
70589;BME280;58152;49.202;18.744;2023-02-13T01:58:08;99288.75;;;2.18;65.85
70589;BME280;58152;49.202;18.744;2023-02-13T02:00:37;99287.91;;;2.19;66.56
70589;BME280;58152;49.202;18.744;2023-02-13T02:03:11;99293.94;;;2.18;65.83
70589;BME280;58152;49.202;18.744;2023-02-13T02:05:38;99294.81;;;2.19;66.07
70589;BME280;58152;49.202;18.744;2023-02-13T02:08:08;99294.78;;;2.17;66.13
70589;BME280;58152;49.202;18.744;2023-02-13T02:10:35;99285.22;;;2.13;66.16
70589;BME280;58152;49.202;18.744;2023-02-13T02:15:31;99295.56;;;2.12;65.99
70589;BME280;58152;49.202;18.744;2023-02-13T02:17:56;99302.41;;;2.10;66.46
70589;BME280;58152;49.202;18.744;2023-02-13T02:20:28;99303.31;;;2.12;66.27
70589;BME280;58152;49.202;18.744;2023-02-13T02:23:11;99301.56;;;2.11;66.31
70589;BME280;58152;49.202;18.744;2023-02-13T02:28:15;99304.06;;;2.06;66.66
70589;BME280;58152;49.202;18.744;2023-02-13T02:36:29;99308.34;;;2.04;66.94
70589;BME280;58152;49.202;18.744;2023-02-13T02:39:02;99297.91;;;2.01;66.68
70589;BME280;58152;49.202;18.744;2023-02-13T02:42:24;99294.38;;;1.96;66.51
70589;BME280;58152;49.202;18.744;2023-02-13T02:44:40;99308.28;;;2.01;66.89
70589;BME280;58152;49.202;18.744;2023-02-13T02:47:19;99312.59;;;2.00;66.82
70589;BME280;58152;49.202;18.744;2023-02-13T02:53:07;99294.41;;;1.97;66.94
70589;BME280;58152;49.202;18.744;2023-02-13T02:55:47;99295.25;;;1.96;67.05
70589;BME280;58152;49.202;18.744;2023-02-13T02:58:36;99293.59;;;2.00;67.19
70589;BME280;58152;49.202;18.744;2023-02-13T03:01:23;99296.91;;;1.93;66.98
70589;BME280;58152;49.202;18.744;2023-02-13T03:04:16;99286.50;;;1.91;66.99
70589;BME280;58152;49.202;18.744;2023-02-13T03:07:06;99287.38;;;1.92;67.30
70589;BME280;58152;49.202;18.744;2023-02-13T03:09:36;99299.53;;;1.94;66.88
70589;BME280;58152;49.202;18.744;2023-02-13T03:12:25;99294.34;;;1.93;66.75
70589;BME280;58152;49.202;18.744;2023-02-13T03:15:12;99296.88;;;1.91;66.76
70589;BME280;58152;49.202;18.744;2023-02-13T03:17:37;99295.97;;;1.89;67.07
70589;BME280;58152;49.202;18.744;2023-02-13T03:20:29;99292.53;;;1.89;66.84
70589;BME280;58152;49.202;18.744;2023-02-13T03:23:18;99290.81;;;1.89;67.26
70589;BME280;58152;49.202;18.744;2023-02-13T03:26:09;99296.84;;;1.88;66.93
70589;BME280;58152;49.202;18.744;2023-02-13T03:28:49;99289.00;;;1.85;67.16
70589;BME280;58152;49.202;18.744;2023-02-13T03:34:12;99294.19;;;1.87;67.39
70589;BME280;58152;49.202;18.744;2023-02-13T03:37:01;99297.69;;;1.89;67.32
70589;BME280;58152;49.202;18.744;2023-02-13T03:40:04;99290.72;;;1.86;67.45
70589;BME280;58152;49.202;18.744;2023-02-13T03:42:46;99289.94;;;1.90;67.14
70589;BME280;58152;49.202;18.744;2023-02-13T03:45:33;99285.56;;;1.88;67.34
70589;BME280;58152;49.202;18.744;2023-02-13T03:48:47;99288.13;;;1.86;67.67
70589;BME280;58152;49.202;18.744;2023-02-13T03:52:12;99292.44;;;1.84;67.61
70589;BME280;58152;49.202;18.744;2023-02-13T03:54:44;99304.44;;;1.82;67.83
70589;BME280;58152;49.202;18.744;2023-02-13T03:57:32;99294.94;;;1.80;67.01
70589;BME280;58152;49.202;18.744;2023-02-13T04:00:18;99300.13;;;1.81;67.21
70589;BME280;58152;49.202;18.744;2023-02-13T04:03:10;99301.88;;;1.82;67.41
70589;BME280;58152;49.202;18.744;2023-02-13T04:05:42;99290.63;;;1.80;67.54
70589;BME280;58152;49.202;18.744;2023-02-13T04:08:08;99297.50;;;1.80;67.45
70589;BME280;58152;49.202;18.744;2023-02-13T04:10:36;99300.13;;;1.81;67.09
70589;BME280;58152;49.202;18.744;2023-02-13T04:13:25;99294.09;;;1.82;67.56
70589;BME280;58152;49.202;18.744;2023-02-13T04:16:00;99300.13;;;1.81;67.58
70589;BME280;58152;49.202;18.744;2023-02-13T04:18:29;99296.66;;;1.81;67.82
70589;BME280;58152;49.202;18.744;2023-02-13T04:20:55;99289.69;;;1.78;67.64
70589;BME280;58152;49.202;18.744;2023-02-13T04:23:21;99288.88;;;1.79;67.77
70589;BME280;58152;49.202;18.744;2023-02-13T04:25:49;99298.38;;;1.80;67.69
70589;BME280;58152;49.202;18.744;2023-02-13T04:28:16;99285.44;;;1.80;67.47
70589;BME280;58152;49.202;18.744;2023-02-13T04:30:41;99285.38;;;1.78;67.62
70589;BME280;58152;49.202;18.744;2023-02-13T04:33:07;99294.88;;;1.78;67.72
70589;BME280;58152;49.202;18.744;2023-02-13T04:35:33;99280.16;;;1.75;67.64
70589;BME280;58152;49.202;18.744;2023-02-13T04:37:59;99286.22;;;1.76;67.81
70589;BME280;58152;49.202;18.744;2023-02-13T04:40:25;99286.25;;;1.77;67.75
70589;BME280;58152;49.202;18.744;2023-02-13T04:42:50;99285.38;;;1.77;68.09
70589;BME280;58152;49.202;18.744;2023-02-13T04:45:16;99291.50;;;1.81;68.01
70589;BME280;58152;49.202;18.744;2023-02-13T04:47:41;99294.88;;;1.78;67.97
70589;BME280;58152;49.202;18.744;2023-02-13T04:50:07;99300.09;;;1.80;68.10
70589;BME280;58152;49.202;18.744;2023-02-13T04:52:33;99294.94;;;1.80;68.05
70589;BME280;58152;49.202;18.744;2023-02-13T04:54:58;99293.97;;;1.76;68.19
70589;BME280;58152;49.202;18.744;2023-02-13T04:57:24;99301.81;;;1.79;68.33
70589;BME280;58152;49.202;18.744;2023-02-13T04:59:49;99312.19;;;1.79;68.08
70589;BME280;58152;49.202;18.744;2023-02-13T05:02:14;99311.25;;;1.77;68.23
70589;BME280;58152;49.202;18.744;2023-02-13T05:04:40;99302.53;;;1.73;68.14
70589;BME280;58152;49.202;18.744;2023-02-13T05:07:05;99307.69;;;1.72;68.48
70589;BME280;58152;49.202;18.744;2023-02-13T05:09:30;99299.84;;;1.69;68.21
70589;BME280;58152;49.202;18.744;2023-02-13T05:11:56;99308.41;;;1.65;68.20
70589;BME280;58152;49.202;18.744;2023-02-13T05:14:21;99304.91;;;1.63;68.22
70589;BME280;58152;49.202;18.744;2023-02-13T05:16:47;99297.91;;;1.57;68.44
70589;BME280;58152;49.202;18.744;2023-02-13T05:19:15;99307.38;;;1.57;68.56
70589;BME280;58152;49.202;18.744;2023-02-13T05:21:40;99307.31;;;1.55;68.85
70589;BME280;58152;49.202;18.744;2023-02-13T05:24:25;99296.09;;;1.55;68.61
70589;BME280;58152;49.202;18.744;2023-02-13T05:26:50;99301.25;;;1.53;68.73
70589;BME280;58152;49.202;18.744;2023-02-13T05:29:15;99291.78;;;1.53;68.23
70589;BME280;58152;49.202;18.744;2023-02-13T05:31:48;99289.22;;;1.55;69.19
70589;BME280;58152;49.202;18.744;2023-02-13T05:34:14;99302.22;;;1.58;68.69
70589;BME280;58152;49.202;18.744;2023-02-13T05:36:40;99304.03;;;1.61;68.59
70589;BME280;58152;49.202;18.744;2023-02-13T05:39:05;99304.91;;;1.61;68.38
70589;BME280;58152;49.202;18.744;2023-02-13T05:41:31;99300.63;;;1.65;68.82
70589;BME280;58152;49.202;18.744;2023-02-13T05:43:56;99305.78;;;1.63;68.80
70589;BME280;58152;49.202;18.744;2023-02-13T05:46:22;99298.91;;;1.64;68.95
70589;BME280;58152;49.202;18.744;2023-02-13T05:48:47;99297.94;;;1.60;68.55
70589;BME280;58152;49.202;18.744;2023-02-13T05:51:12;99299.66;;;1.60;68.59
70589;BME280;58152;49.202;18.744;2023-02-13T05:53:38;99295.34;;;1.59;68.61
70589;BME280;58152;49.202;18.744;2023-02-13T05:56:04;99303.19;;;1.63;68.38
70589;BME280;58152;49.202;18.744;2023-02-13T05:58:31;99303.22;;;1.65;68.65
70589;BME280;58152;49.202;18.744;2023-02-13T06:00:58;99303.22;;;1.65;68.92
70589;BME280;58152;49.202;18.744;2023-02-13T06:03:28;99296.28;;;1.62;68.37
70589;BME280;58152;49.202;18.744;2023-02-13T06:05:54;99298.03;;;1.63;69.27
70589;BME280;58152;49.202;18.744;2023-02-13T06:08:20;99293.69;;;1.62;68.68
70589;BME280;58152;49.202;18.744;2023-02-13T06:10:46;99288.50;;;1.61;68.73
70589;BME280;58152;49.202;18.744;2023-02-13T06:13:12;99291.09;;;1.62;68.82
70589;BME280;58152;49.202;18.744;2023-02-13T06:15:38;99285.94;;;1.62;69.03
70589;BME280;58152;49.202;18.744;2023-02-13T06:18:03;99292.81;;;1.62;69.09
70589;BME280;58152;49.202;18.744;2023-02-13T06:20:29;99297.13;;;1.61;69.43
70589;BME280;58152;49.202;18.744;2023-02-13T06:22:54;99299.66;;;1.60;69.05
70589;BME280;58152;49.202;18.744;2023-02-13T06:25:20;99300.59;;;1.62;69.12
70589;BME280;58152;49.202;18.744;2023-02-13T06:27:46;99297.06;;;1.60;69.28
70589;BME280;58152;49.202;18.744;2023-02-13T06:30:12;99297.94;;;1.60;69.41
70589;BME280;58152;49.202;18.744;2023-02-13T06:32:38;99306.63;;;1.61;69.29
70589;BME280;58152;49.202;18.744;2023-02-13T06:35:04;99305.72;;;1.60;69.05
70589;BME280;58152;49.202;18.744;2023-02-13T06:37:30;99311.81;;;1.62;69.28
70589;BME280;58152;49.202;18.744;2023-02-13T06:39:55;99311.88;;;1.65;69.28
70589;BME280;58152;49.202;18.744;2023-02-13T06:42:21;99317.94;;;1.67;69.20
70589;BME280;58152;49.202;18.744;2023-02-13T06:44:46;99307.56;;;1.66;69.43
70589;BME280;58152;49.202;18.744;2023-02-13T06:47:12;99311.91;;;1.67;69.27
70589;BME280;58152;49.202;18.744;2023-02-13T06:49:37;99324.09;;;1.72;69.55
70589;BME280;58152;49.202;18.744;2023-02-13T06:52:03;99322.34;;;1.71;69.19
70589;BME280;58152;49.202;18.744;2023-02-13T06:54:28;99315.44;;;1.70;69.04
70589;BME280;58152;49.202;18.744;2023-02-13T06:56:53;99314.50;;;1.68;69.18
70589;BME280;58152;49.202;18.744;2023-02-13T06:59:19;99312.00;;;1.71;69.19
70589;BME280;58152;49.202;18.744;2023-02-13T07:01:44;99321.50;;;1.72;69.16
70589;BME280;58152;49.202;18.744;2023-02-13T07:04:09;99322.38;;;1.73;69.46
70589;BME280;58152;49.202;18.744;2023-02-13T07:06:35;99328.41;;;1.73;69.51
70589;BME280;58152;49.202;18.744;2023-02-13T07:09:02;99338.84;;;1.76;69.41
70589;BME280;58152;49.202;18.744;2023-02-13T07:11:27;99329.38;;;1.78;69.35
70589;BME280;58152;49.202;18.744;2023-02-13T07:13:53;99330.31;;;1.81;69.62
70589;BME280;58152;49.202;18.744;2023-02-13T07:16:19;99332.91;;;1.82;68.78
70589;BME280;58152;49.202;18.744;2023-02-13T07:18:45;99334.66;;;1.83;69.30
70589;BME280;58152;49.202;18.744;2023-02-13T07:21:10;99333.88;;;1.86;69.18
70589;BME280;58152;49.202;18.744;2023-02-13T07:23:35;99339.06;;;1.87;69.26
70589;BME280;58152;49.202;18.744;2023-02-13T07:26:01;99346.03;;;1.90;69.19
70589;BME280;58152;49.202;18.744;2023-02-13T07:28:28;99339.13;;;1.89;69.36
70589;BME280;58152;49.202;18.744;2023-02-13T07:30:54;99349.50;;;1.92;69.45
70589;BME280;58152;49.202;18.744;2023-02-13T07:33:20;99349.59;;;1.95;69.32
70589;BME280;58152;49.202;18.744;2023-02-13T07:35:50;99351.38;;;1.97;69.21
70589;BME280;58152;49.202;18.744;2023-02-13T07:38:18;99341.91;;;1.99;69.10
70589;BME280;58152;49.202;18.744;2023-02-13T07:40:44;99341.03;;;1.99;69.12
70589;BME280;58152;49.202;18.744;2023-02-13T07:43:09;99341.13;;;2.03;69.71
70589;BME280;58152;49.202;18.744;2023-02-13T07:45:35;99338.56;;;2.03;69.45
70589;BME280;58152;49.202;18.744;2023-02-13T07:48:00;99334.31;;;2.07;69.49
70589;BME280;58152;49.202;18.744;2023-02-13T07:50:26;99343.81;;;2.07;68.96
70589;BME280;58152;49.202;18.744;2023-02-13T07:52:54;99334.34;;;2.10;69.42
70589;BME280;58152;49.202;18.744;2023-02-13T07:55:20;99341.34;;;2.14;69.51
70589;BME280;58152;49.202;18.744;2023-02-13T07:57:46;99344.88;;;2.19;69.36
70589;BME280;58152;49.202;18.744;2023-02-13T08:00:11;99344.09;;;2.22;69.05
70589;BME280;58152;49.202;18.744;2023-02-13T08:02:37;99329.34;;;2.19;68.90
70589;BME280;58152;49.202;18.744;2023-02-13T08:05:03;99341.59;;;2.26;68.99
70589;BME280;58152;49.202;18.744;2023-02-13T08:07:28;99341.69;;;2.31;69.52
70589;BME280;58152;49.202;18.744;2023-02-13T08:09:54;99341.75;;;2.34;69.21
70589;BME280;58152;49.202;18.744;2023-02-13T08:12:38;99343.53;;;2.38;69.05
70589;BME280;58152;49.202;18.744;2023-02-13T08:15:04;99340.13;;;2.39;68.89
70589;BME280;58152;49.202;18.744;2023-02-13T08:17:30;99347.06;;;2.42;69.00
70589;BME280;58152;49.202;18.744;2023-02-13T08:19:55;99338.44;;;2.43;68.88
70589;BME280;58152;49.202;18.744;2023-02-13T08:22:21;99332.38;;;2.42;68.84
70589;BME280;58152;49.202;18.744;2023-02-13T08:24:46;99341.97;;;2.46;68.75
70589;BME280;58152;49.202;18.744;2023-02-13T08:27:13;99329.94;;;2.50;68.78
70589;BME280;58152;49.202;18.744;2023-02-13T08:29:38;99322.16;;;2.48;68.81
70589;BME280;58152;49.202;18.744;2023-02-13T08:32:04;99317.94;;;2.55;68.43
70589;BME280;58152;49.202;18.744;2023-02-13T08:34:29;99315.41;;;2.60;68.55
70589;BME280;58152;49.202;18.744;2023-02-13T08:36:54;99310.31;;;2.63;68.47
70589;BME280;58152;49.202;18.744;2023-02-13T08:39:20;99328.50;;;2.66;68.37
70589;BME280;58152;49.202;18.744;2023-02-13T08:41:45;99310.38;;;2.66;68.35
70589;BME280;58152;49.202;18.744;2023-02-13T08:44:10;99310.41;;;2.69;68.36
70589;BME280;58152;49.202;18.744;2023-02-13T08:46:36;99316.50;;;2.72;68.44
70589;BME280;58152;49.202;18.744;2023-02-13T08:49:01;99303.56;;;2.74;68.32
70589;BME280;58152;49.202;18.744;2023-02-13T08:51:27;99315.81;;;2.81;68.11
70589;BME280;58152;49.202;18.744;2023-02-13T08:53:52;99316.75;;;2.88;67.79
70589;BME280;58152;49.202;18.744;2023-02-13T08:56:18;99315.09;;;2.90;67.72
70589;BME280;58152;49.202;18.744;2023-02-13T08:58:46;99313.44;;;2.93;67.63
70589;BME280;58152;49.202;18.744;2023-02-13T09:01:12;99319.50;;;2.95;67.65
70589;BME280;58152;49.202;18.744;2023-02-13T09:03:37;99314.38;;;2.98;67.79
70589;BME280;58152;49.202;18.744;2023-02-13T09:06:03;99308.31;;;2.98;67.54
70589;BME280;58152;49.202;18.744;2023-02-13T09:08:28;99316.22;;;3.07;67.49
70589;BME280;58152;49.202;18.744;2023-02-13T09:10:58;99311.94;;;3.09;67.38
70589;BME280;58152;49.202;18.744;2023-02-13T09:13:26;99312.81;;;3.11;67.49
70589;BME280;58152;49.202;18.744;2023-02-13T09:15:51;99302.41;;;3.08;67.26
70589;BME280;58152;49.202;18.744;2023-02-13T09:18:17;99298.03;;;3.05;67.27
70589;BME280;58152;49.202;18.744;2023-02-13T09:20:42;99300.63;;;3.05;67.12
70589;BME280;58152;49.202;18.744;2023-02-13T09:23:07;99307.53;;;3.05;67.47
70589;BME280;58152;49.202;18.744;2023-02-13T09:25:33;99312.75;;;3.06;67.43
70589;BME280;58152;49.202;18.744;2023-02-13T09:27:58;99304.16;;;3.09;67.28
70589;BME280;58152;49.202;18.744;2023-02-13T09:30:24;99310.28;;;3.14;66.95
70589;BME280;58152;49.202;18.744;2023-02-13T09:32:51;99308.56;;;3.15;67.01
70589;BME280;58152;49.202;18.744;2023-02-13T09:35:18;99306.91;;;3.20;67.05
70589;BME280;58152;49.202;18.744;2023-02-13T09:37:43;99305.22;;;3.23;66.97
70589;BME280;58152;49.202;18.744;2023-02-13T09:40:20;99307.06;;;3.30;66.55
70589;BME280;58152;49.202;18.744;2023-02-13T09:42:48;99298.50;;;3.36;66.62
70589;BME280;58152;49.202;18.744;2023-02-13T09:45:15;99314.22;;;3.47;66.57
70589;BME280;58152;49.202;18.744;2023-02-13T09:47:44;99303.91;;;3.51;66.74
70589;BME280;58152;49.202;18.744;2023-02-13T09:50:14;99307.41;;;3.56;66.73
70589;BME280;58152;49.202;18.744;2023-02-13T09:52:43;99292.72;;;3.57;66.39
70589;BME280;58152;49.202;18.744;2023-02-13T09:55:18;99305.88;;;3.71;66.34
70589;BME280;58152;49.202;18.744;2023-02-13T09:58:23;99306.97;;;3.87;66.15
70589;BME280;58152;49.202;18.744;2023-02-13T10:00:53;99303.63;;;3.97;65.97
70589;BME280;58152;49.202;18.744;2023-02-13T10:06:18;99303.16;;;4.34;65.58
70589;BME280;58152;49.202;18.744;2023-02-13T10:08:52;99292.16;;;4.58;65.09
70589;BME280;58152;49.202;18.744;2023-02-13T10:11:42;99293.13;;;4.70;64.93
70589;BME280;58152;49.202;18.744;2023-02-13T10:14:16;99290.63;;;4.85;64.64
70589;BME280;58152;49.202;18.744;2023-02-13T10:19:41;99287.25;;;4.92;64.80
70589;BME280;58152;49.202;18.744;2023-02-13T10:22:20;99279.47;;;4.98;64.44
70589;BME280;58152;49.202;18.744;2023-02-13T10:27:23;99267.34;;;4.97;64.12
70589;BME280;58152;49.202;18.744;2023-02-13T10:30:04;99270.09;;;5.20;64.79
70589;BME280;58152;49.202;18.744;2023-02-13T10:32:51;99262.47;;;5.46;64.57
70589;BME280;58152;49.202;18.744;2023-02-13T10:35:39;99259.06;;;5.63;63.94
70589;BME280;58152;49.202;18.744;2023-02-13T10:38:14;99253.00;;;5.67;63.54
70589;BME280;58152;49.202;18.744;2023-02-13T10:43:37;99245.19;;;5.67;63.28
70589;BME280;58152;49.202;18.744;2023-02-13T10:51:41;99233.19;;;5.98;63.19
70589;BME280;58152;49.202;18.744;2023-02-13T10:57:04;99238.41;;;6.02;63.25
70589;BME280;58152;49.202;18.744;2023-02-13T11:00:04;99225.34;;;5.99;63.11
70589;BME280;58152;49.202;18.744;2023-02-13T11:02:30;99228.00;;;6.05;62.86
70589;BME280;58152;49.202;18.744;2023-02-13T11:05:06;99226.22;;;6.04;63.07
70589;BME280;58152;49.202;18.744;2023-02-13T11:07:36;99217.56;;;6.05;62.65
70589;BME280;58152;49.202;18.744;2023-02-13T11:10:22;99221.94;;;6.31;62.63
70589;BME280;58152;49.202;18.744;2023-02-13T11:12:48;99211.53;;;6.35;62.70
70589;BME280;58152;49.202;18.744;2023-02-13T11:15:28;99213.28;;;6.33;62.68
70589;BME280;58152;49.202;18.744;2023-02-13T11:17:57;99202.84;;;6.53;62.48
70589;BME280;58152;49.202;18.744;2023-02-13T11:22:52;99195.00;;;6.41;62.20
70589;BME280;58152;49.202;18.744;2023-02-13T11:25:24;99194.16;;;6.42;61.93
70589;BME280;58152;49.202;18.744;2023-02-13T11:28:06;99192.41;;;6.41;62.14
70589;BME280;58152;49.202;18.744;2023-02-13T11:30:37;99197.63;;;6.41;61.97
70589;BME280;58152;49.202;18.744;2023-02-13T11:35:43;99198.50;;;6.61;61.49
70589;BME280;58152;49.202;18.744;2023-02-13T11:40:44;99199.38;;;6.54;61.57
70589;BME280;58152;49.202;18.744;2023-02-13T11:43:19;99195.00;;;6.55;61.55
70589;BME280;58152;49.202;18.744;2023-02-13T11:49:04;99191.56;;;6.53;61.54
70589;BME280;58152;49.202;18.744;2023-02-13T11:51:36;99195.91;;;6.52;61.85
70589;BME280;58152;49.202;18.744;2023-02-13T11:54:03;99185.47;;;6.63;61.39
70589;BME280;58152;49.202;18.744;2023-02-13T11:56:46;99192.41;;;6.76;60.58
70589;BME280;58152;49.202;18.744;2023-02-13T11:59:12;99182.00;;;6.75;61.03
70589;BME280;58152;49.202;18.744;2023-02-13T12:01:38;99187.16;;;7.01;60.50
70589;BME280;58152;49.202;18.744;2023-02-13T12:06:33;99187.13;;;7.13;60.40
70589;BME280;58152;49.202;18.744;2023-02-13T12:09:13;99188.88;;;7.12;60.10
70589;BME280;58152;49.202;18.744;2023-02-13T12:11:48;99196.72;;;7.03;60.36
70589;BME280;58152;49.202;18.744;2023-02-13T12:14:39;99189.78;;;6.92;60.23
70589;BME280;58152;49.202;18.744;2023-02-13T12:17:12;99190.66;;;6.84;60.25
70589;BME280;58152;49.202;18.744;2023-02-13T12:19:47;99182.81;;;6.98;60.40
70589;BME280;58152;49.202;18.744;2023-02-13T12:22:44;99177.50;;;7.33;59.87
70589;BME280;58152;49.202;18.744;2023-02-13T12:28:19;99174.88;;;7.38;60.18
70589;BME280;58152;49.202;18.744;2023-02-13T12:40:59;99164.53;;;6.95;60.79
70589;BME280;58152;49.202;18.744;2023-02-13T12:48:55;99159.31;;;6.95;60.69
70589;BME280;58152;49.202;18.744;2023-02-13T13:02:48;99159.31;;;7.07;60.58
70589;BME280;58152;49.202;18.744;2023-02-13T13:11:14;99147.03;;;7.31;60.13
70589;BME280;58152;49.202;18.744;2023-02-13T13:24:32;99153.81;;;7.73;59.96
70589;BME280;58152;49.202;18.744;2023-02-13T13:27:24;99155.59;;;7.67;59.70
70589;BME280;58152;49.202;18.744;2023-02-13T13:30:05;99160.00;;;7.54;59.11
70589;BME280;58152;49.202;18.744;2023-02-13T13:32:38;99152.22;;;7.42;60.28
70589;BME280;58152;49.202;18.744;2023-02-13T13:35:05;99149.63;;;7.40;60.36
70589;BME280;58152;49.202;18.744;2023-02-13T13:37:42;99138.25;;;7.53;59.99
70589;BME280;58152;49.202;18.744;2023-02-13T13:40:32;99135.44;;;7.90;58.75
70589;BME280;58152;49.202;18.744;2023-02-13T13:48:21;99133.69;;;7.90;58.85
70589;BME280;58152;49.202;18.744;2023-02-13T13:50:51;99138.06;;;7.82;59.70
70589;BME280;58152;49.202;18.744;2023-02-13T13:53:19;99126.81;;;7.76;59.23
70589;BME280;58152;49.202;18.744;2023-02-13T13:58:32;99126.81;;;7.70;59.67
70589;BME280;58152;49.202;18.744;2023-02-13T14:03:59;99136.47;;;7.55;59.71
70589;BME280;58152;49.202;18.744;2023-02-13T14:11:53;99138.31;;;7.38;59.72
70589;BME280;58152;49.202;18.744;2023-02-13T14:16:55;99140.06;;;7.31;60.13
70589;BME280;58152;49.202;18.744;2023-02-13T14:19:28;99138.38;;;7.26;59.68
70589;BME280;58152;49.202;18.744;2023-02-13T14:27:21;99140.13;;;7.18;60.61
70589;BME280;58152;49.202;18.744;2023-02-13T14:29:47;99142.75;;;7.11;60.00
70589;BME280;58152;49.202;18.744;2023-02-13T14:32:19;99132.31;;;7.05;60.42
70589;BME280;58152;49.202;18.744;2023-02-13T14:34:56;99131.47;;;7.00;61.10
70589;BME280;58152;49.202;18.744;2023-02-13T14:37:28;99135.81;;;7.00;60.34
70589;BME280;58152;49.202;18.744;2023-02-13T14:42:41;99139.34;;;6.97;61.16
70589;BME280;58152;49.202;18.744;2023-02-13T14:45:19;99125.44;;;6.89;60.89
70589;BME280;58152;49.202;18.744;2023-02-13T14:47:49;99125.41;;;6.91;61.04
70589;BME280;58152;49.202;18.744;2023-02-13T14:50:29;99128.88;;;6.96;60.82
70589;BME280;58152;49.202;18.744;2023-02-13T14:52:58;99129.75;;;6.95;60.87
70589;BME280;58152;49.202;18.744;2023-02-13T14:55:34;99127.16;;;6.92;60.95
70589;BME280;58152;49.202;18.744;2023-02-13T14:58:27;99128.03;;;6.89;61.41
70589;BME280;58152;49.202;18.744;2023-02-13T15:00:59;99128.91;;;6.85;61.20
70589;BME280;58152;49.202;18.744;2023-02-13T15:06:39;99137.63;;;6.81;62.14
70589;BME280;58152;49.202;18.744;2023-02-13T15:11:45;99136.78;;;6.71;62.03
70589;BME280;58152;49.202;18.744;2023-02-13T15:14:35;99131.56;;;6.71;62.87
70589;BME280;58152;49.202;18.744;2023-02-13T15:17:06;99132.44;;;6.66;62.78
70589;BME280;58152;49.202;18.744;2023-02-13T15:19:34;99130.69;;;6.65;62.87
70589;BME280;58152;49.202;18.744;2023-02-13T15:22:03;99120.25;;;6.61;63.12
70589;BME280;58152;49.202;18.744;2023-02-13T15:24:35;99120.28;;;6.57;63.12
70589;BME280;58152;49.202;18.744;2023-02-13T15:27:05;99108.97;;;6.52;63.25